Time;durP1;ratioP1;P1;durP2;ratioP2;P2;SDS_P1;SDS_P2;PMS_P1;PMS_P2;Temp;Humidity;BMP_temperature;BMP_pressure;BME280_temperature;BME280_humidity;BME280_pressure;Samples;Min_cycle;Max_cycle;Signal;HPM_P1;HPM_P2
2023/01/27 00:00:16;;;;;;;2.17;1.98;;;-1.40;99.90;;;;;;5127125;27;20194;-69
2023/01/27 00:02:43;;;;;;;4.68;2.55;;;-1.40;99.90;;;;;;5119187;27;20674;-69
2023/01/27 00:05:12;;;;;;;2.47;1.40;;;-1.50;99.90;;;;;;5128325;27;20211;-70
2023/01/27 00:07:44;;;;;;;1.65;1.55;;;-1.50;99.90;;;;;;5128253;27;20219;-70
2023/01/27 00:10:13;;;;;;;4.78;2.33;;;-1.50;99.90;;;;;;5127954;27;20217;-69
2023/01/27 00:15:28;;;;;;;3.22;1.77;;;-1.40;99.90;;;;;;5128233;27;20223;-67
2023/01/27 00:17:54;;;;;;;6.82;1.80;;;-1.40;99.90;;;;;;5128505;27;20221;-69
2023/01/27 00:24:34;;;;;;;0.95;0.95;;;-1.50;99.90;;;;;;5127016;27;20202;-69
2023/01/27 00:26:05;;;;;;;2.25;2.15;;;-1.50;99.90;;;;;;5128049;28;20229;-68
2023/01/27 00:28:33;;;;;;;0.63;0.63;;;-0.60;99.90;;;;;;5127157;28;20231;-69
2023/01/27 00:31:00;;;;;;;4.60;2.30;;;;;;;;;;5127041;28;20221;-69
2023/01/27 00:33:26;;;;;;;0.60;0.60;;;-1.30;99.90;;;;;;5128353;28;20197;-69
2023/01/27 00:36:00;;;;;;;3.65;1.08;;;-1.40;99.90;;;;;;5127428;28;20228;-69
2023/01/27 00:38:28;;;;;;;4.97;2.30;;;-1.40;99.90;;;;;;5112842;28;20753;-69
2023/01/27 00:43:41;;;;;;;1.45;1.42;;;-1.30;99.90;;;;;;5122041;28;20574;-69
2023/01/27 00:46:08;;;;;;;2.75;1.70;;;-1.30;99.90;;;;;;5128725;27;20234;-69
2023/01/27 00:48:35;;;;;;;6.63;2.45;;;-1.40;99.90;;;;;;5115271;27;20283;-69
2023/01/27 00:51:02;;;;;;;2.33;2.15;;;-1.40;99.90;;;;;;5131719;27;20716;-69
2023/01/27 00:53:29;;;;;;;2.05;1.95;;;-0.50;99.90;;;;;;5131434;27;20282;-70
2023/01/27 00:55:57;;;;;;;1.85;1.60;;;-2.00;99.90;;;;;;5131655;27;20231;-68
2023/01/27 00:58:24;;;;;;;2.45;2.38;;;-1.30;99.90;;;;;;5131322;27;20314;-70
2023/01/27 01:00:54;;;;;;;3.58;3.28;;;-1.40;99.90;;;;;;5115300;27;20223;-67
2023/01/27 01:03:21;;;;;;;1.95;1.35;;;-1.30;99.90;;;;;;5131640;27;20257;-69
2023/01/27 01:05:48;;;;;;;0.70;0.70;;;-1.30;99.90;;;;;;5131637;27;20589;-69
2023/01/27 01:08:15;;;;;;;2.20;2.13;;;-1.50;99.90;;;;;;5130768;27;20566;-69
2023/01/27 01:10:42;;;;;;;0.30;0.30;;;-1.50;99.90;;;;;;5131827;27;20224;-69
2023/01/27 01:13:10;;;;;;;1.40;0.93;;;-1.40;99.90;;;;;;5131725;27;20568;-69
2023/01/27 01:15:37;;;;;;;1.33;1.30;;;-1.50;99.90;;;;;;5131433;27;20223;-69
2023/01/27 01:18:06;;;;;;;1.00;1.00;;;-1.40;99.90;;;;;;5130577;27;20232;-70
2023/01/27 01:20:37;;;;;;;1.02;1.02;;;-1.30;99.90;;;;;;5131460;27;20224;-68
2023/01/27 01:23:04;;;;;;;1.15;1.02;;;-1.50;99.90;;;;;;5131642;27;20258;-67
2023/01/27 01:25:30;;;;;;;2.67;1.95;;;-1.40;99.90;;;;;;5131328;27;20227;-69
2023/01/27 01:27:57;;;;;;;2.05;1.25;;;-1.30;99.90;;;;;;5131184;27;20200;-68
2023/01/27 01:30:25;;;;;;;2.78;1.10;;;-1.30;99.90;;;;;;5131693;27;20228;-68
2023/01/27 01:32:52;;;;;;;3.42;1.60;;;-1.30;99.90;;;;;;5131122;27;20205;-69
2023/01/27 01:35:20;;;;;;;1.77;1.67;;;-1.60;99.90;;;;;;5130794;27;20193;-69
2023/01/27 01:37:48;;;;;;;1.02;1.02;;;-1.50;99.90;;;;;;5121947;27;20233;-69
2023/01/27 01:40:15;;;;;;;1.52;1.33;;;-1.40;99.90;;;;;;5124664;27;20203;-69
2023/01/27 01:42:56;;;;;;;2.30;2.10;;;-1.30;99.90;;;;;;5130994;27;20199;-68
2023/01/27 01:45:47;;;;;;;1.05;1.05;;;-1.50;99.90;;;;;;5131331;27;20203;-69
2023/01/27 01:48:18;;;;;;;1.67;1.10;;;-1.40;99.90;;;;;;5122054;27;20637;-69
2023/01/27 01:50:51;;;;;;;2.08;1.98;;;-1.40;99.90;;;;;;5131242;27;20235;-68
2023/01/27 01:53:20;;;;;;;1.45;1.45;;;-1.50;99.90;;;;;;5110624;28;20323;-69
2023/01/27 01:55:48;;;;;;;2.10;1.90;;;-1.40;99.90;;;;;;5110414;28;20243;-69
2023/01/27 01:58:16;;;;;;;2.85;1.48;;;-1.50;99.90;;;;;;5126011;27;20220;-69
2023/01/27 02:00:43;;;;;;;1.48;1.25;;;;;;;;;;5126440;27;20715;-69
2023/01/27 02:03:11;;;;;;;0.98;0.98;;;-1.40;99.90;;;;;;5117775;27;20560;-68
2023/01/27 02:05:41;;;;;;;1.35;1.15;;;-1.40;99.90;;;;;;5129039;27;20225;-69
2023/01/27 02:08:15;;;;;;;4.22;2.40;;;-1.30;99.90;;;;;;5115693;27;20201;-70
2023/01/27 02:10:42;;;;;;;1.67;1.58;;;-1.30;99.90;;;;;;5109451;28;20239;-69
2023/01/27 02:13:09;;;;;;;1.08;1.08;;;-1.60;99.90;;;;;;5118211;27;20228;-69
2023/01/27 02:15:38;;;;;;;1.90;1.75;;;-1.60;99.90;;;;;;5118400;27;20215;-68
2023/01/27 02:18:07;;;;;;;4.68;2.53;;;-1.50;99.90;;;;;;5110284;27;20224;-69
2023/01/27 02:20:40;;;;;;;0.50;0.50;;;-1.30;99.90;;;;;;5129935;27;20330;-68
2023/01/27 02:23:27;;;;;;;1.67;0.85;;;-1.40;99.90;;;;;;5129428;27;20201;-69
2023/01/27 02:25:59;;;;;;;1.70;1.50;;;-1.40;99.90;;;;;;5130173;27;20663;-69
2023/01/27 02:28:28;;;;;;;1.88;1.70;;;-1.30;99.90;;;;;;5129509;27;20223;-69
2023/01/27 02:30:56;;;;;;;1.55;1.38;;;;;;;;;;5129885;27;20269;-69
2023/01/27 02:33:23;;;;;;;1.90;1.70;;;-1.40;99.90;;;;;;5129890;27;20193;-68
2023/01/27 02:35:58;;;;;;;0.60;0.60;;;-1.60;99.90;;;;;;5130369;27;20622;-69
2023/01/27 02:38:33;;;;;;;2.80;1.95;;;-1.60;99.90;;;;;;5128790;27;20327;-68
2023/01/27 02:41:07;;;;;;;2.30;1.15;;;-1.70;99.90;;;;;;5112408;27;20752;-68
2023/01/27 02:43:34;;;;;;;0.52;0.52;;;-1.70;99.90;;;;;;5130235;27;20204;-69
2023/01/27 02:46:01;;;;;;;2.45;1.50;;;-1.60;99.90;;;;;;5129482;27;20220;-70
2023/01/27 02:48:29;;;;;;;4.20;2.03;;;-1.60;99.90;;;;;;5128709;27;20650;-67
2023/01/27 02:50:56;;;;;;;2.45;2.20;;;-1.50;99.90;;;;;;5130075;27;20691;-69
2023/01/27 02:53:25;;;;;;;1.10;1.10;;;;;;;;;;5129941;27;20208;-68
2023/01/27 02:55:53;;;;;;;2.00;1.88;;;-1.10;99.90;;;;;;5129923;27;20521;-69
2023/01/27 02:58:22;;;;;;;2.90;2.28;;;-1.30;99.90;;;;;;5128786;27;20277;-69
2023/01/27 03:00:50;;;;;;;0.50;0.50;;;-1.30;99.90;;;;;;5129206;27;20263;-69
2023/01/27 03:03:19;;;;;;;0.75;0.75;;;-1.30;99.90;;;;;;5129463;27;20201;-69
2023/01/27 03:05:49;;;;;;;3.40;2.60;;;-1.30;99.90;;;;;;5129601;27;20228;-70
2023/01/27 03:08:17;;;;;;;3.15;2.92;;;-1.40;99.90;;;;;;5128026;27;20192;-68
2023/01/27 03:10:44;;;;;;;0.60;0.60;;;;;;;;;;5121150;27;20301;-69
2023/01/27 03:13:11;;;;;;;1.35;0.70;;;-1.30;99.90;;;;;;5117573;27;20196;-69
2023/01/27 03:18:23;;;;;;;2.58;2.38;;;-1.20;99.90;;;;;;5123781;27;20277;-69
2023/01/27 03:20:50;;;;;;;0.90;0.90;;;-1.30;99.90;;;;;;5129477;27;20617;-68
2023/01/27 03:23:19;;;;;;;1.00;1.00;;;-1.30;99.90;;;;;;5128869;27;20197;-69
2023/01/27 03:25:48;;;;;;;3.40;2.78;;;-1.30;99.90;;;;;;5127925;27;20228;-69
2023/01/27 03:28:16;;;;;;;1.63;1.58;;;-1.30;99.90;;;;;;5110591;27;20209;-69
2023/01/27 03:30:46;;;;;;;2.85;2.63;;;-1.30;99.90;;;;;;5108768;28;20293;-69
2023/01/27 03:33:14;;;;;;;2.47;1.80;;;-1.30;99.90;;;;;;5109125;27;20212;-69
2023/01/27 03:35:46;;;;;;;2.20;2.10;;;-1.20;99.90;;;;;;5108275;28;20305;-69
2023/01/27 03:46:35;;;;;;;1.40;1.40;;;-1.20;99.90;;;;;;5128168;27;20642;-68
2023/01/27 03:49:02;;;;;;;1.52;1.35;;;-1.30;99.90;;;;;;5128039;27;20193;-69
2023/01/27 03:51:29;;;;;;;0.60;0.60;;;-1.20;99.90;;;;;;5128808;27;20681;-68
2023/01/27 03:53:59;;;;;;;5.97;2.00;;;-1.20;99.90;;;;;;5128250;27;20193;-69
2023/01/27 03:56:27;;;;;;;0.30;0.30;;;-1.20;99.90;;;;;;5128165;27;20307;-69
2023/01/27 03:58:55;;;;;;;0.88;0.70;;;-1.20;99.90;;;;;;5114964;27;20318;-68
2023/01/27 04:01:23;;;;;;;1.58;1.48;;;;;;;;;;5128126;27;20232;-67
2023/01/27 04:06:54;;;;;;;1.38;1.38;;;-1.40;99.90;;;;;;5128278;27;20598;-69
2023/01/27 04:09:24;;;;;;;1.58;1.15;;;-1.40;99.90;;;;;;5127559;27;20285;-70
2023/01/27 04:11:58;;;;;;;3.05;1.45;;;-1.40;99.90;;;;;;5128095;27;20223;-68
2023/01/27 04:14:29;;;;;;;3.55;2.25;;;-1.40;99.90;;;;;;5127309;27;20303;-68
2023/01/27 04:16:58;;;;;;;0.47;0.47;;;-1.40;99.90;;;;;;5127315;27;20296;-69
2023/01/27 04:19:27;;;;;;;2.05;1.48;;;-1.40;99.90;;;;;;5127777;27;20520;-69
2023/01/27 04:21:54;;;;;;;1.15;0.98;;;;;;;;;;5127544;27;20305;-70
2023/01/27 04:24:24;;;;;;;1.25;1.15;;;-1.40;99.90;;;;;;5127664;28;20196;-68
2023/01/27 04:26:54;;;;;;;1.45;1.15;;;-1.30;99.90;;;;;;5127735;28;20224;-69
2023/01/27 04:29:22;;;;;;;0.45;0.45;;;-1.40;99.90;;;;;;5127759;28;20204;-69
2023/01/27 04:31:49;;;;;;;0.90;0.90;;;-1.30;99.90;;;;;;5127516;28;20221;-68
2023/01/27 04:34:17;;;;;;;3.42;2.15;;;-1.30;99.90;;;;;;5127812;28;21079;-70
2023/01/27 04:36:46;;;;;;;1.88;1.08;;;-1.30;99.90;;;;;;5125459;28;20590;-68
2023/01/27 04:39:13;;;;;;;1.58;1.48;;;-1.20;99.90;;;;;;5120048;28;20217;-68
2023/01/27 04:41:40;;;;;;;1.05;1.05;;;-1.30;99.90;;;;;;5110979;28;20565;-69
2023/01/27 04:44:07;;;;;;;2.35;0.95;;;-1.30;99.90;;;;;;5128327;28;20642;-69
2023/01/27 04:46:35;;;;;;;0.85;0.85;;;-1.30;99.90;;;;;;5127983;28;20226;-68
2023/01/27 04:49:02;;;;;;;3.63;1.35;;;-1.30;99.90;;;;;;5126557;28;20455;-69
2023/01/27 04:51:29;;;;;;;2.40;2.30;;;-1.20;99.90;;;;;;5127787;28;20248;-69
2023/01/27 04:53:57;;;;;;;4.70;4.25;;;-1.30;99.90;;;;;;5128005;28;20211;-69
2023/01/27 04:56:29;;;;;;;0.50;0.50;;;-1.30;99.90;;;;;;5127894;28;20228;-69
2023/01/27 04:58:58;;;;;;;1.10;1.00;;;-1.40;99.90;;;;;;5127291;28;20311;-69
2023/01/27 05:01:26;;;;;;;4.00;2.28;;;;;;;;;;5127714;28;20224;-68
2023/01/27 05:03:53;;;;;;;7.25;1.80;;;-1.30;99.90;;;;;;5127779;28;20205;-68
2023/01/27 05:06:20;;;;;;;2.63;2.42;;;;;;;;;;5127417;28;20233;-67
2023/01/27 05:08:47;;;;;;;1.00;1.00;;;-1.40;99.90;;;;;;5127731;28;20211;-69
2023/01/27 05:11:15;;;;;;;1.63;1.40;;;-1.40;99.90;;;;;;5127671;28;20227;-69
2023/01/27 05:13:42;;;;;;;5.53;2.13;;;-1.20;99.90;;;;;;5126083;28;20687;-69
2023/01/27 05:16:12;;;;;;;2.70;2.47;;;-0.70;99.90;;;;;;5106596;28;20259;-69
2023/01/27 05:18:40;;;;;;;0.88;0.68;;;-1.20;99.90;;;;;;5116944;28;20244;-68
2023/01/27 05:21:08;;;;;;;1.27;1.17;;;-1.20;99.90;;;;;;5107243;28;20256;-69
2023/01/27 05:23:35;;;;;;;2.30;1.35;;;-1.20;99.90;;;;;;5107134;28;20204;-69
2023/01/27 05:26:04;;;;;;;2.13;1.95;;;-1.40;99.90;;;;;;5107117;28;20350;-69
2023/01/27 05:28:32;;;;;;;1.05;1.05;;;-1.20;99.90;;;;;;5106344;28;20684;-68
2023/01/27 05:31:03;;;;;;;1.40;1.23;;;-1.20;99.90;;;;;;5107285;28;20602;-68
2023/01/27 05:33:30;;;;;;;1.52;1.42;;;-1.20;99.90;;;;;;5124977;27;20203;-69
2023/01/27 05:36:00;;;;;;;2.50;2.03;;;-1.20;99.90;;;;;;5131010;27;20229;-69
2023/01/27 05:38:27;;;;;;;1.42;1.35;;;-1.20;99.90;;;;;;5113871;27;20221;-68
2023/01/27 05:40:59;;;;;;;2.25;2.05;;;-1.20;99.90;;;;;;5130936;27;20514;-69
2023/01/27 05:43:26;;;;;;;1.70;1.65;;;-1.10;99.90;;;;;;5130344;27;20283;-67
2023/01/27 05:46:02;;;;;;;4.13;1.85;;;-1.10;99.90;;;;;;5131010;27;20227;-68
2023/01/27 05:48:28;;;;;;;2.50;1.65;;;-1.10;99.90;;;;;;5130700;27;20211;-69
2023/01/27 05:50:56;;;;;;;4.20;1.98;;;-1.10;99.90;;;;;;5130824;27;20219;-69
2023/01/27 05:53:23;;;;;;;2.95;2.85;;;-1.10;99.90;;;;;;5130700;27;20292;-68
2023/01/27 05:55:51;;;;;;;2.17;2.08;;;-1.20;99.90;;;;;;5130445;27;20221;-68
2023/01/27 05:58:18;;;;;;;1.75;1.65;;;-1.40;99.90;;;;;;5129988;27;20197;-68
2023/01/27 06:00:45;;;;;;;2.38;1.48;;;-1.40;99.90;;;;;;5130655;27;20222;-69
2023/01/27 06:03:14;;;;;;;0.60;0.60;;;-1.20;99.90;;;;;;5130714;27;20277;-69
2023/01/27 06:05:50;;;;;;;1.02;0.77;;;-1.20;99.90;;;;;;5130121;27;20217;-69
2023/01/27 06:08:17;;;;;;;1.30;0.93;;;;;;;;;;5128909;27;20199;-69
2023/01/27 06:10:44;;;;;;;1.58;1.48;;;-1.40;99.90;;;;;;5130534;27;20263;-68
2023/01/27 06:13:11;;;;;;;1.17;1.17;;;-1.40;99.90;;;;;;5130462;27;20190;-69
2023/01/27 06:15:41;;;;;;;12.27;1.95;;;-1.50;99.90;;;;;;5130395;27;20747;-69
2023/01/27 06:18:08;;;;;;;0.90;0.90;;;-1.50;99.90;;;;;;5129632;27;20201;-69
2023/01/27 06:20:36;;;;;;;1.15;1.13;;;-1.60;99.90;;;;;;5130107;27;20228;-69
2023/01/27 06:23:03;;;;;;;1.30;1.20;;;;;;;;;;5130149;27;20195;-69
2023/01/27 06:25:30;;;;;;;2.75;2.58;;;-1.40;99.90;;;;;;5130178;27;20228;-68
2023/01/27 06:27:57;;;;;;;1.20;1.20;;;-1.40;99.90;;;;;;5130027;27;20193;-69
2023/01/27 06:30:24;;;;;;;2.70;2.13;;;-1.50;99.90;;;;;;5129848;27;20598;-69
2023/01/27 06:32:51;;;;;;;2.08;1.90;;;-1.50;99.90;;;;;;5129693;27;20280;-68
2023/01/27 06:35:18;;;;;;;1.90;1.80;;;-1.40;99.90;;;;;;5129634;27;20203;-68
2023/01/27 06:37:46;;;;;;;0.50;0.50;;;-1.00;99.90;;;;;;5129635;27;20712;-69
2023/01/27 06:40:13;;;;;;;1.83;1.73;;;-1.30;99.90;;;;;;5114632;27;20443;-69
2023/01/27 06:42:43;;;;;;;2.60;2.40;;;-1.40;99.90;;;;;;5117769;27;20200;-70
2023/01/27 06:45:10;;;;;;;0.50;0.50;;;-1.40;99.90;;;;;;5111893;28;20541;-67
2023/01/27 06:47:37;;;;;;;1.63;1.52;;;-1.40;99.90;;;;;;5110501;27;20194;-69
2023/01/27 06:50:04;;;;;;;2.25;1.85;;;-1.40;99.90;;;;;;5108123;28;20207;-68
2023/01/27 06:52:31;;;;;;;2.03;1.80;;;-1.50;99.90;;;;;;5120757;27;20211;-69
2023/01/27 06:54:59;;;;;;;4.75;2.00;;;-1.40;99.90;;;;;;5129609;27;20754;-69
2023/01/27 06:57:26;;;;;;;3.05;2.08;;;;;;;;;;5129443;27;20241;-68
2023/01/27 06:59:53;;;;;;;1.77;1.42;;;-1.30;99.90;;;;;;5107193;27;20224;-69
2023/01/27 07:02:20;;;;;;;4.65;3.13;;;-1.30;99.90;;;;;;5119271;27;20663;-69
2023/01/27 07:04:47;;;;;;;1.23;1.23;;;-1.40;99.90;;;;;;5128146;27;20193;-69
2023/01/27 07:07:13;;;;;;;2.13;2.03;;;-1.30;99.90;;;;;;5124915;27;20322;-69
2023/01/27 07:09:40;;;;;;;2.63;2.42;;;-1.20;99.90;;;;;;5119779;27;20195;-69
2023/01/27 07:12:08;;;;;;;1.92;1.83;;;-1.10;99.90;;;;;;5128162;27;20207;-70
2023/01/27 07:14:35;;;;;;;1.27;1.17;;;-1.00;99.90;;;;;;5129471;27;20567;-69
2023/01/27 07:17:02;;;;;;;1.83;1.73;;;-1.00;99.90;;;;;;5125982;27;20300;-69
2023/01/27 07:19:29;;;;;;;3.70;2.10;;;-0.90;99.90;;;;;;5108468;28;20225;-69
2023/01/27 07:21:55;;;;;;;5.07;1.95;;;-0.80;99.90;;;;;;5108638;27;20232;-69
2023/01/27 07:24:22;;;;;;;5.07;3.00;;;-0.70;99.90;;;;;;5122342;27;20200;-69
2023/01/27 07:26:49;;;;;;;1.65;1.55;;;-0.70;99.90;;;;;;5112130;27;20215;-69
2023/01/27 07:29:17;;;;;;;1.00;1.00;;;-0.70;99.90;;;;;;5128502;27;20635;-69
2023/01/27 07:31:44;;;;;;;3.03;2.17;;;-0.60;99.90;;;;;;5128138;27;20304;-68
2023/01/27 07:34:11;;;;;;;6.20;2.28;;;-0.60;99.90;;;;;;5125655;27;20692;-69
2023/01/27 07:36:38;;;;;;;6.40;2.25;;;-0.90;99.90;;;;;;5110581;27;20225;-69
2023/01/27 07:39:05;;;;;;;3.60;2.17;;;;;;;;;;5116864;27;20300;-69
2023/01/27 07:41:32;;;;;;;1.92;1.83;;;-0.70;99.90;;;;;;5127527;27;20729;-69
2023/01/27 07:43:59;;;;;;;1.58;1.48;;;-0.90;99.90;;;;;;5128389;27;20204;-67
2023/01/27 07:46:27;;;;;;;2.60;2.50;;;-0.80;99.90;;;;;;5128370;27;20229;-69
2023/01/27 07:48:54;;;;;;;2.22;2.10;;;-0.80;99.90;;;;;;5128397;27;20214;-69
2023/01/27 07:51:20;;;;;;;7.88;2.63;;;-0.80;99.90;;;;;;5128268;27;20217;-68
2023/01/27 07:53:47;;;;;;;1.10;1.10;;;-0.70;99.90;;;;;;5129055;27;20212;-69
2023/01/27 07:56:14;;;;;;;2.03;1.45;;;;;;;;;;5126164;27;20220;-69
2023/01/27 07:58:42;;;;;;;1.48;0.90;;;-0.50;99.90;;;;;;5111716;27;20204;-68
2023/01/27 08:01:11;;;;;;;2.85;2.58;;;-0.50;99.90;;;;;;5128070;27;20691;-69
2023/01/27 08:03:39;;;;;;;2.08;1.90;;;-0.50;99.90;;;;;;5127771;27;20276;-69
2023/01/27 08:06:07;;;;;;;5.03;1.77;;;-0.40;99.90;;;;;;5128399;27;20275;-68
2023/01/27 08:08:34;;;;;;;2.67;2.30;;;-0.30;99.90;;;;;;5122074;27;20193;-69
2023/01/27 08:11:02;;;;;;;2.78;2.67;;;-0.30;99.90;;;;;;5108527;28;20232;-69
2023/01/27 08:13:29;;;;;;;2.63;2.40;;;-0.50;99.90;;;;;;5126357;27;20668;-69
2023/01/27 08:15:57;;;;;;;1.38;1.27;;;-0.50;99.90;;;;;;5128200;27;20225;-68
2023/01/27 08:18:24;;;;;;;4.10;1.48;;;-0.50;99.90;;;;;;5127097;27;20196;-68
2023/01/27 08:20:53;;;;;;;2.78;2.40;;;-0.40;99.90;;;;;;5127966;27;20239;-69
2023/01/27 08:23:21;;;;;;;4.55;2.05;;;-0.50;99.90;;;;;;5128517;27;20189;-69
2023/01/27 08:25:51;;;;;;;5.10;1.95;;;-0.10;99.90;;;;;;5126632;28;20559;-69
2023/01/27 08:28:18;;;;;;;4.75;2.78;;;-0.60;99.90;;;;;;5110195;28;20194;-69
2023/01/27 08:30:46;;;;;;;0.80;0.63;;;-0.40;99.90;;;;;;5127385;28;20235;-69
2023/01/27 08:33:13;;;;;;;2.28;2.08;;;-0.40;99.90;;;;;;5127522;28;20194;-69
2023/01/27 08:35:43;;;;;;;2.55;2.45;;;;;;;;;;5115131;28;20218;-68
2023/01/27 08:38:12;;;;;;;1.60;1.50;;;-0.40;99.90;;;;;;5114282;27;20208;-69
2023/01/27 08:40:40;;;;;;;2.67;1.55;;;-1.00;99.90;;;;;;5125402;28;20227;-68
2023/01/27 08:43:07;;;;;;;1.55;1.23;;;-0.50;99.90;;;;;;5128240;28;20204;-69
2023/01/27 08:45:35;;;;;;;1.75;1.65;;;-0.30;99.90;;;;;;5127949;28;20540;-69
2023/01/27 08:48:03;;;;;;;1.00;0.98;;;-0.40;99.90;;;;;;5126985;28;20193;-67
2023/01/27 08:50:30;;;;;;;1.65;1.02;;;-0.40;99.90;;;;;;5128357;28;20628;-68
2023/01/27 08:52:57;;;;;;;3.00;1.85;;;-0.30;99.90;;;;;;5127156;28;20272;-68
2023/01/27 08:55:26;;;;;;;5.18;1.33;;;-0.40;99.90;;;;;;5127334;28;20707;-69
2023/01/27 08:57:53;;;;;;;1.25;0.93;;;-0.40;99.90;;;;;;5115904;28;20208;-69
2023/01/27 09:00:21;;;;;;;0.75;0.70;;;-0.50;99.90;;;;;;5117563;28;20209;-70
2023/01/27 09:02:49;;;;;;;2.25;2.15;;;-0.60;99.90;;;;;;5117647;28;20287;-69
2023/01/27 09:05:17;;;;;;;3.03;2.72;;;-0.50;99.90;;;;;;5119398;28;20232;-69
2023/01/27 09:07:44;;;;;;;2.45;1.73;;;-0.50;99.90;;;;;;5119229;27;20200;-69
2023/01/27 09:10:12;;;;;;;0.68;0.68;;;-0.60;99.90;;;;;;5120197;27;20323;-69
2023/01/27 09:12:41;;;;;;;5.72;4.30;;;-0.60;99.90;;;;;;5120369;27;20197;-69
2023/01/27 09:15:08;;;;;;;1.17;1.08;;;-0.60;99.90;;;;;;5120623;27;20197;-69
2023/01/27 09:17:35;;;;;;;2.90;2.70;;;-0.40;99.90;;;;;;5118517;27;20560;-69
2023/01/27 09:20:03;;;;;;;2.03;1.83;;;-0.70;99.90;;;;;;5126322;27;20225;-68
2023/01/27 09:22:29;;;;;;;0.85;0.85;;;-0.60;99.90;;;;;;5131511;27;20265;-68
2023/01/27 09:24:56;;;;;;;3.35;1.05;;;-0.50;99.90;;;;;;5131171;27;20284;-68
2023/01/27 09:27:23;;;;;;;0.90;0.90;;;-0.60;99.90;;;;;;5128918;27;20217;-68
2023/01/27 09:29:51;;;;;;;2.35;1.50;;;-0.60;99.90;;;;;;5130410;27;20212;-67
2023/01/27 09:32:18;;;;;;;2.92;1.77;;;-0.60;99.90;;;;;;5127480;27;20571;-67
2023/01/27 09:34:45;;;;;;;2.58;2.15;;;-0.50;99.90;;;;;;5123691;27;20201;-68
2023/01/27 09:37:13;;;;;;;1.00;1.00;;;-0.50;99.90;;;;;;5128105;27;20229;-67
2023/01/27 09:39:43;;;;;;;1.80;1.70;;;-0.70;99.90;;;;;;5117499;27;20214;-68
2023/01/27 09:42:25;;;;;;;0.85;0.85;;;-0.60;99.90;;;;;;5115767;27;20296;-68
2023/01/27 09:45:35;;;;;;;0.75;0.75;;;-0.60;99.90;;;;;;5129704;27;20297;-68
2023/01/27 09:48:21;;;;;;;1.67;1.13;;;-0.50;99.90;;;;;;5117969;27;20203;-68
2023/01/27 09:50:55;;;;;;;2.10;1.55;;;-0.40;99.90;;;;;;5130980;27;20699;-68
2023/01/27 09:53:52;;;;;;;1.90;0.98;;;-0.40;99.90;;;;;;5127338;27;20202;-67
2023/01/27 09:56:29;;;;;;;1.02;1.02;;;-0.40;99.90;;;;;;5118449;27;20217;-68
2023/01/27 09:59:08;;;;;;;0.90;0.90;;;-0.20;99.90;;;;;;5119643;27;20505;-68
2023/01/27 10:01:47;;;;;;;0.65;0.65;;;-0.30;99.90;;;;;;5119960;27;20229;-68
2023/01/27 10:04:38;;;;;;;1.42;1.33;;;-0.20;99.90;;;;;;5119069;27;20309;-68
2023/01/27 10:07:28;;;;;;;0.63;0.63;;;-0.20;99.90;;;;;;5118583;27;20300;-68
2023/01/27 10:10:22;;;;;;;1.77;1.67;;;-0.20;99.90;;;;;;5127931;27;20204;-67
2023/01/27 10:12:59;;;;;;;3.42;3.17;;;0.00;99.90;;;;;;5130079;27;20207;-68
2023/01/27 10:15:38;;;;;;;1.13;1.13;;;-0.10;99.90;;;;;;5130397;27;20221;-69
2023/01/27 10:18:15;;;;;;;1.25;0.77;;;-0.10;99.90;;;;;;5129190;27;20190;-69
2023/01/27 10:20:48;;;;;;;1.88;1.63;;;-0.10;99.90;;;;;;5130303;27;20238;-68
2023/01/27 10:23:31;;;;;;;2.13;2.03;;;-0.10;99.90;;;;;;5130021;27;20204;-66
2023/01/27 10:26:08;;;;;;;6.15;2.05;;;-0.20;99.90;;;;;;5129995;27;20703;-68
2023/01/27 10:28:37;;;;;;;1.55;1.45;;;-0.20;99.90;;;;;;5128487;27;20193;-69
2023/01/27 10:31:11;;;;;;;4.97;2.38;;;-0.30;99.90;;;;;;5130557;27;20227;-67
2023/01/27 10:33:48;;;;;;;2.55;1.17;;;-0.30;99.90;;;;;;5126221;27;20702;-68
2023/01/27 10:36:23;;;;;;;3.03;2.83;;;-0.30;99.90;;;;;;5127751;27;20597;-69
2023/01/27 10:38:56;;;;;;;0.80;0.80;;;-0.20;99.90;;;;;;5124852;27;20204;-67
2023/01/27 10:41:30;;;;;;;0.88;0.88;;;-0.20;99.90;;;;;;5110207;27;20324;-69
2023/01/27 10:44:09;;;;;;;1.48;1.08;;;-0.20;99.90;;;;;;5128409;27;20195;-68
2023/01/27 10:46:45;;;;;;;0.77;0.77;;;-0.10;99.90;;;;;;5125963;27;20216;-67
2023/01/27 10:49:22;;;;;;;6.07;1.02;;;0.00;99.90;;;;;;5108963;28;20209;-68
2023/01/27 10:51:54;;;;;;;0.60;0.60;;;0.20;99.90;;;;;;5115009;27;20303;-68
2023/01/27 10:54:27;;;;;;;2.88;2.67;;;0.00;99.90;;;;;;5119520;27;20209;-67
2023/01/27 10:56:58;;;;;;;4.32;2.35;;;0.10;99.90;;;;;;5124863;27;20220;-68
2023/01/27 10:59:33;;;;;;;1.30;1.30;;;0.20;99.90;;;;;;5129052;27;20230;-68
2023/01/27 11:02:05;;;;;;;1.02;0.95;;;0.10;99.90;;;;;;5128327;27;20236;-69
2023/01/27 11:04:38;;;;;;;5.68;3.20;;;0.10;99.90;;;;;;5119969;27;20221;-69
2023/01/27 11:07:06;;;;;;;2.65;2.55;;;0.20;99.90;;;;;;5112865;27;20237;-68
2023/01/27 11:09:36;;;;;;;10.00;1.67;;;0.20;99.90;;;;;;5128589;27;20201;-68
2023/01/27 11:12:08;;;;;;;1.83;1.63;;;0.20;99.90;;;;;;5128556;27;20217;-68
2023/01/27 11:14:43;;;;;;;0.50;0.50;;;-0.40;99.90;;;;;;5128680;27;20287;-69
2023/01/27 11:17:17;;;;;;;0.82;0.82;;;0.20;99.90;;;;;;5108882;28;20641;-68
2023/01/27 11:19:55;;;;;;;3.80;2.75;;;0.20;99.90;;;;;;5108321;28;20736;-68
2023/01/27 11:22:27;;;;;;;2.90;1.60;;;0.20;99.90;;;;;;5122954;27;20706;-68
2023/01/27 11:25:02;;;;;;;1.40;1.40;;;0.20;99.90;;;;;;5120681;27;20201;-68
2023/01/27 11:27:46;;;;;;;1.15;1.05;;;0.20;99.90;;;;;;5129431;27;20200;-69
2023/01/27 11:30:18;;;;;;;2.65;2.55;;;0.30;99.90;;;;;;5123368;27;20276;-68
2023/01/27 11:32:54;;;;;;;1.13;1.08;;;0.20;99.90;;;;;;5128798;27;20570;-68
2023/01/27 11:35:23;;;;;;;2.58;1.13;;;0.10;99.90;;;;;;5118083;27;20280;-68
2023/01/27 11:37:51;;;;;;;0.82;0.82;;;0.20;99.90;;;;;;5118956;27;20216;-69
2023/01/27 11:40:22;;;;;;;1.60;0.68;;;0.20;99.90;;;;;;5122380;27;20710;-68
2023/01/27 11:42:49;;;;;;;0.98;0.98;;;0.20;99.90;;;;;;5118970;27;20712;-69
2023/01/27 11:45:18;;;;;;;7.72;1.85;;;0.40;99.90;;;;;;5119256;27;20281;-68
2023/01/27 11:47:47;;;;;;;2.15;2.05;;;0.30;99.90;;;;;;5117368;27;20588;-68
2023/01/27 11:50:16;;;;;;;2.10;1.00;;;0.30;99.90;;;;;;5116785;27;20285;-67
2023/01/27 11:52:48;;;;;;;1.88;1.77;;;0.20;99.90;;;;;;5109248;28;20687;-68
2023/01/27 11:55:18;;;;;;;2.50;1.00;;;0.30;99.90;;;;;;5108523;28;20279;-68
2023/01/27 11:57:50;;;;;;;0.90;0.90;;;0.40;99.90;;;;;;5119033;27;20574;-68
2023/01/27 12:00:22;;;;;;;1.77;1.55;;;0.40;99.90;;;;;;5127349;27;20826;-68
2023/01/27 12:02:55;;;;;;;2.20;1.65;;;0.40;99.90;;;;;;5128333;27;20686;-68
2023/01/27 12:05:29;;;;;;;1.40;1.27;;;0.40;99.80;;;;;;5115398;27;20202;-67
2023/01/27 12:07:59;;;;;;;0.65;0.65;;;0.50;99.90;;;;;;5115226;27;20199;-67
2023/01/27 12:10:30;;;;;;;0.80;0.80;;;0.50;99.60;;;;;;5107913;28;20707;-67
2023/01/27 12:12:58;;;;;;;0.52;0.52;;;0.70;99.90;;;;;;5108459;28;20539;-68
2023/01/27 12:15:27;;;;;;;1.13;1.13;;;0.40;99.80;;;;;;5112251;28;20220;-69
2023/01/27 12:17:58;;;;;;;2.38;1.73;;;0.50;99.90;;;;;;5114347;27;20194;-68
2023/01/27 12:20:31;;;;;;;6.18;2.47;;;0.50;99.80;;;;;;5107640;28;20218;-68
2023/01/27 12:23:04;;;;;;;0.30;0.30;;;0.50;99.90;;;;;;5107915;28;20675;-68
2023/01/27 12:25:43;;;;;;;2.05;1.63;;;0.40;99.90;;;;;;5107488;28;20232;-68
2023/01/27 12:28:23;;;;;;;6.65;4.60;;;0.20;99.90;;;;;;5120870;28;20697;-68
2023/01/27 12:30:52;;;;;;;1.13;1.08;;;0.20;99.90;;;;;;5126530;28;20260;-68
2023/01/27 12:33:23;;;;;;;2.05;1.58;;;0.20;99.90;;;;;;5115571;28;20190;-68
2023/01/27 12:35:51;;;;;;;0.95;0.80;;;0.80;99.90;;;;;;5121057;28;20217;-68
2023/01/27 12:38:22;;;;;;;1.23;1.15;;;0.40;99.90;;;;;;5125864;28;20208;-69
2023/01/27 12:40:57;;;;;;;13.88;3.28;;;0.30;99.90;;;;;;5117739;27;20221;-68
2023/01/27 12:43:24;;;;;;;1.88;1.77;;;0.30;99.90;;;;;;5132585;27;20287;-68
2023/01/27 12:46:06;;;;;;;0.75;0.75;;;0.40;99.90;;;;;;5132350;27;20233;-68
2023/01/27 12:48:35;;;;;;;0.68;0.68;;;0.40;99.90;;;;;;5131802;27;20197;-68
2023/01/27 12:51:13;;;;;;;1.30;0.98;;;0.40;99.90;;;;;;5132377;27;20301;-68
2023/01/27 12:53:43;;;;;;;2.88;1.67;;;0.40;99.90;;;;;;5132046;27;20201;-68
2023/01/27 12:56:13;;;;;;;1.95;0.82;;;0.50;99.90;;;;;;5131681;27;20217;-68
2023/01/27 12:58:42;;;;;;;1.42;1.33;;;0.70;99.90;;;;;;5129583;27;20217;-68
2023/01/27 13:01:23;;;;;;;1.35;1.25;;;0.70;99.90;;;;;;5131319;27;20268;-67
2023/01/27 13:03:53;;;;;;;0.70;0.70;;;0.60;99.90;;;;;;5131066;27;20280;-68
2023/01/27 13:06:32;;;;;;;1.00;1.00;;;0.50;99.90;;;;;;5131936;27;20229;-67
2023/01/27 13:09:02;;;;;;;1.90;1.75;;;0.60;99.90;;;;;;5122135;27;20304;-69
2023/01/27 13:11:39;;;;;;;1.15;1.15;;;0.50;99.90;;;;;;5111126;28;20473;-67
2023/01/27 13:14:08;;;;;;;1.25;1.15;;;0.40;99.90;;;;;;5129345;27;20201;-68
2023/01/27 13:16:37;;;;;;;1.45;1.35;;;0.40;99.90;;;;;;5130924;27;20588;-68
2023/01/27 13:19:16;;;;;;;4.97;2.88;;;0.40;99.90;;;;;;5110757;28;20739;-68
2023/01/27 13:21:44;;;;;;;4.93;3.45;;;0.60;99.90;;;;;;5110382;28;20324;-68
2023/01/27 13:24:18;;;;;;;2.25;1.58;;;0.60;99.90;;;;;;5111209;28;20204;-68
2023/01/27 13:26:46;;;;;;;3.50;1.35;;;0.50;99.90;;;;;;5113376;27;20309;-68
2023/01/27 13:29:19;;;;;;;9.10;1.58;;;0.30;99.90;;;;;;5130197;27;20201;-67